RYR5605 LICA-EDDR
Flight info
| Callsign | RYR5605 |
|---|---|
| Flight time | 2h 7m |
| Altitude | 36000 |
| Route | ARBUM M620 EVINO/N0440F360 DCT ALAXI DCT INSOX DCT RITEB DCT UPONO DCT AOSTA DCT ORSUD DCT MOLUS DCT GILIR/N0409F300 DCT PENDU DCT IXILU DCT EPL G21 MAKOT |
| Aircraft | B738/M-SDE2E3FGHIRWXY/LB1 |
Departure
| Time | 2026-04-16 21:25 |
|---|---|
| Airport | Lamezia Terme Sant'Eufemia International Airport (LICA) |
Arrival
| Time | 2026-04-16 23:32 |
|---|---|
| Airport | Saarbrücken Airport (EDDR) |
| Time | Latitude | Longitude | Altitude | Speed | Heading |
|---|---|---|---|---|---|
| 2026-04-16 20:48 | 38.90857 | 16.24517 | 31 ft | 0 kts | 8° |
| 2026-04-16 21:16 | 38.90853 | 16.24517 | 30 ft | 2 kts | 9° |
| 2026-04-16 21:16 | 38.90837 | 16.24512 | 31 ft | 2 kts | 19° |
| 2026-04-16 21:16 | 38.90822 | 16.24502 | 31 ft | 2 kts | 38° |
| 2026-04-16 21:16 | 38.90811 | 16.24486 | 27 ft | 2 kts | 72° |
| 2026-04-16 21:17 | 38.90809 | 16.24466 | 30 ft | 2 kts | 95° |
| 2026-04-16 21:17 | 38.90810 | 16.24457 | 29 ft | 0 kts | 98° |
| 2026-04-16 21:20 | 38.90810 | 16.24458 | 29 ft | 1 kts | 98° |
| 2026-04-16 21:20 | 38.90794 | 16.24596 | 31 ft | 16 kts | 98° |
| 2026-04-16 21:20 | 38.90779 | 16.24732 | 31 ft | 15 kts | 98° |
| 2026-04-16 21:20 | 38.90764 | 16.24858 | 31 ft | 13 kts | 98° |
| 2026-04-16 21:21 | 38.90717 | 16.24930 | 31 ft | 10 kts | 144° |
| 2026-04-16 21:21 | 38.90672 | 16.25006 | 32 ft | 12 kts | 100° |
| 2026-04-16 21:21 | 38.90657 | 16.25134 | 33 ft | 17 kts | 99° |
| 2026-04-16 21:21 | 38.90637 | 16.25305 | 32 ft | 22 kts | 98° |
| 2026-04-16 21:22 | 38.90612 | 16.25518 | 32 ft | 26 kts | 98° |
| 2026-04-16 21:22 | 38.90587 | 16.25747 | 31 ft | 26 kts | 97° |
| 2026-04-16 21:22 | 38.90561 | 16.25964 | 33 ft | 23 kts | 99° |
| 2026-04-16 21:22 | 38.90541 | 16.26140 | 32 ft | 17 kts | 97° |
| 2026-04-16 21:23 | 38.90530 | 16.26240 | 32 ft | 0 kts | 109° |
| 2026-04-16 21:23 | 38.90495 | 16.26300 | 33 ft | 15 kts | 147° |
| 2026-04-16 21:23 | 38.90396 | 16.26293 | 32 ft | 12 kts | 190° |
| 2026-04-16 21:23 | 38.90341 | 16.26278 | 32 ft | 10 kts | 206° |
| 2026-04-16 21:24 | 38.90313 | 16.26202 | 33 ft | 11 kts | 268° |
| 2026-04-16 21:24 | 38.90339 | 16.25966 | 30 ft | 57 kts | 278° |
| 2026-04-16 21:24 | 38.90431 | 16.25169 | 33 ft | 121 kts | 279° |
| 2026-04-16 21:24 | 38.90583 | 16.23874 | 107 ft | 165 kts | 277° |
| 2026-04-16 21:25 | 38.90785 | 16.22394 | 717 ft | 169 kts | 278° |
| 2026-04-16 21:25 | 38.90984 | 16.20913 | 1454 ft | 168 kts | 278° |
| 2026-04-16 21:25 | 38.91160 | 16.19406 | 1940 ft | 183 kts | 278° |
| 2026-04-16 21:25 | 38.91342 | 16.17680 | 2191 ft | 205 kts | 278° |
| 2026-04-16 21:26 | 38.91543 | 16.15822 | 2573 ft | 214 kts | 279° |
| 2026-04-16 21:26 | 38.91756 | 16.13898 | 3068 ft | 220 kts | 279° |
| 2026-04-16 21:26 | 38.92131 | 16.11975 | 3436 ft | 235 kts | 301° |
| 2026-04-16 21:26 | 38.93185 | 16.10264 | 3730 ft | 252 kts | 311° |
| 2026-04-16 21:27 | 38.94361 | 16.08534 | 4268 ft | 260 kts | 311° |
| 2026-04-16 21:27 | 38.95563 | 16.06748 | 4884 ft | 266 kts | 311° |
| 2026-04-16 21:27 | 38.96775 | 16.04933 | 5541 ft | 269 kts | 312° |
| 2026-04-16 21:27 | 38.97981 | 16.03116 | 6182 ft | 272 kts | 312° |
| 2026-04-16 21:28 | 38.99222 | 16.01240 | 6823 ft | 277 kts | 311° |
| 2026-04-16 21:28 | 39.00475 | 15.99341 | 7470 ft | 280 kts | 311° |
| 2026-04-16 21:28 | 39.01743 | 15.97415 | 8145 ft | 283 kts | 311° |
| 2026-04-16 21:28 | 39.03029 | 15.95471 | 8823 ft | 287 kts | 314° |
| 2026-04-16 21:29 | 39.04598 | 15.93933 | 9473 ft | 288 kts | 335° |
| 2026-04-16 21:29 | 39.06431 | 15.92843 | 10178 ft | 291 kts | 337° |
| 2026-04-16 21:29 | 39.08330 | 15.91750 | 10502 ft | 309 kts | 337° |
| 2026-04-16 21:29 | 39.10368 | 15.90577 | 10680 ft | 331 kts | 337° |
| 2026-04-16 21:30 | 39.12487 | 15.89345 | 11095 ft | 342 kts | 336° |
| 2026-04-16 21:30 | 39.14671 | 15.88065 | 11718 ft | 346 kts | 336° |
| 2026-04-16 21:30 | 39.16872 | 15.86766 | 12424 ft | 349 kts | 336° |
| 2026-04-16 21:30 | 39.19097 | 15.85450 | 13146 ft | 353 kts | 336° |
| 2026-04-16 21:31 | 39.21340 | 15.84122 | 13871 ft | 356 kts | 336° |
| 2026-04-16 21:31 | 39.23577 | 15.82795 | 14524 ft | 360 kts | 336° |
| 2026-04-16 21:31 | 39.25863 | 15.81439 | 15186 ft | 363 kts | 336° |
| 2026-04-16 21:31 | 39.28148 | 15.79985 | 15851 ft | 367 kts | 328° |
| 2026-04-16 21:32 | 39.30175 | 15.77940 | 16541 ft | 370 kts | 320° |
| 2026-04-16 21:32 | 39.32112 | 15.75778 | 17211 ft | 374 kts | 320° |
| 2026-04-16 21:32 | 39.34077 | 15.73555 | 17864 ft | 377 kts | 320° |
| 2026-04-16 21:32 | 39.36067 | 15.71309 | 18490 ft | 381 kts | 320° |
| 2026-04-16 21:33 | 39.38088 | 15.69044 | 19053 ft | 384 kts | 320° |
| 2026-04-16 21:33 | 39.40126 | 15.66773 | 19614 ft | 388 kts | 320° |
| 2026-04-16 21:33 | 39.42185 | 15.64489 | 20169 ft | 391 kts | 320° |
| 2026-04-16 21:33 | 39.44261 | 15.62191 | 20721 ft | 394 kts | 320° |
| 2026-04-16 21:34 | 39.46334 | 15.59898 | 21248 ft | 397 kts | 320° |
| 2026-04-16 21:34 | 39.48444 | 15.57564 | 21768 ft | 401 kts | 320° |
| 2026-04-16 21:34 | 39.50581 | 15.55197 | 22296 ft | 404 kts | 320° |
| 2026-04-16 21:34 | 39.52728 | 15.52819 | 22808 ft | 407 kts | 320° |
| 2026-04-16 21:35 | 39.54863 | 15.50450 | 23313 ft | 411 kts | 320° |
| 2026-04-16 21:35 | 39.57042 | 15.48031 | 23783 ft | 414 kts | 320° |
| 2026-04-16 21:35 | 39.59242 | 15.45586 | 24203 ft | 416 kts | 320° |
| 2026-04-16 21:35 | 39.61451 | 15.43129 | 24631 ft | 419 kts | 320° |
| 2026-04-16 21:36 | 39.63677 | 15.40651 | 25063 ft | 421 kts | 321° |
| 2026-04-16 21:36 | 39.65882 | 15.38194 | 25470 ft | 423 kts | 321° |
| 2026-04-16 21:36 | 39.68125 | 15.35693 | 25859 ft | 426 kts | 321° |
| 2026-04-16 21:36 | 39.70388 | 15.33168 | 26246 ft | 429 kts | 321° |
| 2026-04-16 21:37 | 39.72713 | 15.30692 | 26638 ft | 431 kts | 324° |
| 2026-04-16 21:37 | 39.75094 | 15.28379 | 27012 ft | 433 kts | 326° |
| 2026-04-16 21:37 | 39.77558 | 15.26083 | 27391 ft | 435 kts | 326° |
| 2026-04-16 21:37 | 39.80042 | 15.23798 | 27748 ft | 438 kts | 326° |
| 2026-04-16 21:38 | 39.82530 | 15.21504 | 28110 ft | 440 kts | 326° |
| 2026-04-16 21:38 | 39.85005 | 15.19207 | 28463 ft | 442 kts | 326° |
| 2026-04-16 21:38 | 39.87516 | 15.16858 | 28803 ft | 445 kts | 326° |
| 2026-04-16 21:38 | 39.90044 | 15.14481 | 29136 ft | 447 kts | 326° |
| 2026-04-16 21:39 | 39.92568 | 15.12097 | 29478 ft | 449 kts | 326° |
| 2026-04-16 21:39 | 39.95102 | 15.09697 | 29796 ft | 451 kts | 326° |
| 2026-04-16 21:39 | 39.97619 | 15.07310 | 30090 ft | 454 kts | 326° |
| 2026-04-16 21:39 | 40.00174 | 15.04883 | 30410 ft | 454 kts | 326° |
| 2026-04-16 21:40 | 40.02736 | 15.02448 | 30803 ft | 453 kts | 326° |
| 2026-04-16 21:40 | 40.05285 | 15.00022 | 31203 ft | 451 kts | 326° |
| 2026-04-16 21:40 | 40.07787 | 14.97639 | 31568 ft | 450 kts | 325° |
| 2026-04-16 21:40 | 40.10324 | 14.95222 | 31910 ft | 450 kts | 325° |
| 2026-04-16 21:41 | 40.12857 | 14.92807 | 32269 ft | 449 kts | 325° |
| 2026-04-16 21:41 | 40.15375 | 14.90403 | 32643 ft | 447 kts | 325° |
| 2026-04-16 21:41 | 40.17860 | 14.88029 | 33010 ft | 446 kts | 325° |
| 2026-04-16 21:41 | 40.20362 | 14.85636 | 33361 ft | 445 kts | 325° |
| 2026-04-16 21:42 | 40.22863 | 14.83242 | 33694 ft | 444 kts | 325° |
| 2026-04-16 21:42 | 40.25360 | 14.80850 | 34027 ft | 443 kts | 325° |
| 2026-04-16 21:42 | 40.27845 | 14.78467 | 34327 ft | 442 kts | 325° |
| 2026-04-16 21:42 | 40.30329 | 14.76083 | 34612 ft | 441 kts | 325° |
| 2026-04-16 21:43 | 40.32805 | 14.73705 | 34879 ft | 440 kts | 325° |
| 2026-04-16 21:43 | 40.35272 | 14.71332 | 35140 ft | 440 kts | 325° |
| 2026-04-16 21:43 | 40.37703 | 14.68992 | 35406 ft | 439 kts | 325° |
| 2026-04-16 21:43 | 40.40168 | 14.66618 | 35669 ft | 438 kts | 325° |
| 2026-04-16 21:44 | 40.42622 | 14.64251 | 35924 ft | 437 kts | 325° |
| 2026-04-16 21:44 | 40.45083 | 14.61876 | 36073 ft | 439 kts | 325° |
| 2026-04-16 21:44 | 40.47555 | 14.59488 | 36062 ft | 442 kts | 325° |
| 2026-04-16 21:45 | 40.52474 | 14.54729 | 36063 ft | 439 kts | 325° |
| 2026-04-16 21:45 | 40.57369 | 14.49983 | 36065 ft | 433 kts | 325° |
| 2026-04-16 21:46 | 40.62188 | 14.45304 | 36072 ft | 432 kts | 325° |
| 2026-04-16 21:46 | 40.67031 | 14.40593 | 36075 ft | 431 kts | 325° |
| 2026-04-16 21:47 | 40.71836 | 14.35910 | 36075 ft | 431 kts | 325° |
| 2026-04-16 21:47 | 40.76670 | 14.31190 | 36081 ft | 432 kts | 325° |
| 2026-04-16 21:48 | 40.81505 | 14.26461 | 36075 ft | 432 kts | 325° |
| 2026-04-16 21:48 | 40.86342 | 14.21720 | 36076 ft | 433 kts | 325° |
| 2026-04-16 21:49 | 40.91167 | 14.16982 | 36083 ft | 434 kts | 325° |
| 2026-04-16 21:49 | 40.96033 | 14.12196 | 36075 ft | 435 kts | 325° |
| 2026-04-16 21:50 | 41.00869 | 14.07429 | 36076 ft | 435 kts | 325° |
| 2026-04-16 21:50 | 41.05733 | 14.02626 | 36077 ft | 435 kts | 325° |
| 2026-04-16 21:51 | 41.10569 | 13.97841 | 36077 ft | 435 kts | 326° |
| 2026-04-16 21:51 | 41.15417 | 13.93036 | 36081 ft | 434 kts | 326° |
| 2026-04-16 21:52 | 41.20256 | 13.88230 | 36073 ft | 433 kts | 326° |
| 2026-04-16 21:52 | 41.25054 | 13.83457 | 36082 ft | 432 kts | 326° |
| 2026-04-16 21:53 | 41.29860 | 13.78665 | 36082 ft | 430 kts | 326° |
| 2026-04-16 21:53 | 41.34619 | 13.73913 | 36092 ft | 428 kts | 326° |
| 2026-04-16 21:54 | 41.39384 | 13.69145 | 36099 ft | 427 kts | 326° |
| 2026-04-16 21:54 | 41.44144 | 13.64374 | 36089 ft | 426 kts | 326° |
| 2026-04-16 21:55 | 41.48855 | 13.59642 | 36099 ft | 425 kts | 326° |
| 2026-04-16 21:55 | 41.53581 | 13.54886 | 36099 ft | 424 kts | 327° |
| 2026-04-16 21:56 | 41.57479 | 13.50958 | 36104 ft | 423 kts | 327° |
| 2026-04-16 21:56 | 41.62945 | 13.45438 | 36112 ft | 422 kts | 327° |
| 2026-04-16 21:57 | 41.66842 | 13.41494 | 36112 ft | 422 kts | 327° |
| 2026-04-16 21:57 | 41.71540 | 13.36734 | 36116 ft | 422 kts | 326° |
| 2026-04-16 21:58 | 41.75891 | 13.31445 | 36129 ft | 427 kts | 316° |
| 2026-04-16 21:58 | 41.79887 | 13.25530 | 36114 ft | 427 kts | 316° |
| 2026-04-16 21:59 | 41.84038 | 13.19848 | 36129 ft | 425 kts | 321° |
| 2026-04-16 21:59 | 41.88451 | 13.14630 | 36127 ft | 425 kts | 322° |
| 2026-04-16 22:00 | 41.92932 | 13.09402 | 36122 ft | 426 kts | 322° |
| 2026-04-16 22:00 | 41.97370 | 13.04162 | 36121 ft | 425 kts | 322° |
| 2026-04-16 22:01 | 42.01795 | 12.98892 | 36130 ft | 423 kts | 321° |
| 2026-04-16 22:01 | 42.06179 | 12.93651 | 36118 ft | 423 kts | 321° |
| 2026-04-16 22:02 | 42.10583 | 12.88376 | 36125 ft | 422 kts | 321° |
| 2026-04-16 22:02 | 42.14950 | 12.83136 | 36114 ft | 422 kts | 321° |
| 2026-04-16 22:03 | 42.19344 | 12.77852 | 36120 ft | 422 kts | 320° |
| 2026-04-16 22:03 | 42.23737 | 12.72560 | 36113 ft | 423 kts | 320° |
| 2026-04-16 22:04 | 42.28107 | 12.67286 | 36116 ft | 423 kts | 320° |
| 2026-04-16 22:04 | 42.32511 | 12.61960 | 36117 ft | 424 kts | 320° |
| 2026-04-16 22:05 | 42.36890 | 12.56654 | 36117 ft | 424 kts | 320° |
| 2026-04-16 22:05 | 42.41295 | 12.51306 | 36118 ft | 425 kts | 320° |
| 2026-04-16 22:06 | 42.45709 | 12.45936 | 36122 ft | 426 kts | 320° |
| 2026-04-16 22:06 | 42.52312 | 12.37883 | 36120 ft | 426 kts | 319° |
| 2026-04-16 22:07 | 42.56727 | 12.32486 | 36121 ft | 426 kts | 319° |
| 2026-04-16 22:07 | 42.61109 | 12.27117 | 36119 ft | 426 kts | 319° |
| 2026-04-16 22:08 | 42.65516 | 12.21708 | 36120 ft | 426 kts | 319° |
| 2026-04-16 22:08 | 42.69926 | 12.16299 | 36122 ft | 425 kts | 321° |
| 2026-04-16 22:09 | 42.74532 | 12.11326 | 36131 ft | 424 kts | 324° |
| 2026-04-16 22:09 | 42.79240 | 12.06471 | 36128 ft | 423 kts | 324° |
| 2026-04-16 22:10 | 42.83882 | 12.01578 | 36132 ft | 423 kts | 323° |
| 2026-04-16 22:10 | 42.88121 | 11.95987 | 36140 ft | 423 kts | 314° |
| 2026-04-16 22:11 | 42.92088 | 11.90111 | 36139 ft | 423 kts | 314° |
| 2026-04-16 22:11 | 42.96084 | 11.84185 | 36132 ft | 423 kts | 314° |
| 2026-04-16 22:12 | 43.00086 | 11.78283 | 36140 ft | 422 kts | 315° |
| 2026-04-16 22:12 | 43.04066 | 11.72423 | 36138 ft | 422 kts | 315° |
| 2026-04-16 22:13 | 43.08068 | 11.66525 | 36138 ft | 421 kts | 315° |
| 2026-04-16 22:13 | 43.12035 | 11.60669 | 36136 ft | 421 kts | 315° |
| 2026-04-16 22:14 | 43.16027 | 11.54762 | 36139 ft | 421 kts | 315° |
| 2026-04-16 22:14 | 43.19989 | 11.48886 | 36133 ft | 421 kts | 315° |
| 2026-04-16 22:15 | 43.23973 | 11.42967 | 36133 ft | 422 kts | 315° |
| 2026-04-16 22:15 | 43.27947 | 11.37050 | 36135 ft | 421 kts | 315° |
| 2026-04-16 22:16 | 43.31902 | 11.31149 | 36119 ft | 422 kts | 316° |
| 2026-04-16 22:16 | 43.35858 | 11.25233 | 36132 ft | 421 kts | 316° |
| 2026-04-16 22:17 | 43.39833 | 11.19277 | 36120 ft | 422 kts | 316° |
| 2026-04-16 22:17 | 43.43798 | 11.13324 | 36126 ft | 421 kts | 316° |
| 2026-04-16 22:18 | 43.47738 | 11.07396 | 36119 ft | 421 kts | 316° |
| 2026-04-16 22:18 | 43.51679 | 11.01454 | 36113 ft | 420 kts | 316° |
| 2026-04-16 22:19 | 43.55607 | 10.95518 | 36120 ft | 420 kts | 316° |
| 2026-04-16 22:19 | 43.59551 | 10.89548 | 36121 ft | 420 kts | 316° |
| 2026-04-16 22:20 | 43.63469 | 10.83604 | 36117 ft | 419 kts | 316° |
| 2026-04-16 22:20 | 43.67403 | 10.77622 | 36122 ft | 419 kts | 316° |
| 2026-04-16 22:21 | 43.71315 | 10.71661 | 36117 ft | 418 kts | 316° |
| 2026-04-16 22:21 | 43.75204 | 10.65723 | 36127 ft | 417 kts | 316° |
| 2026-04-16 22:22 | 43.79108 | 10.59751 | 36134 ft | 416 kts | 316° |
| 2026-04-16 22:22 | 43.82970 | 10.53830 | 36126 ft | 416 kts | 316° |
| 2026-04-16 22:23 | 43.86847 | 10.47872 | 36143 ft | 415 kts | 316° |
| 2026-04-16 22:23 | 43.90681 | 10.41970 | 36149 ft | 414 kts | 316° |
| 2026-04-16 22:24 | 43.94533 | 10.36028 | 36158 ft | 413 kts | 316° |
| 2026-04-16 22:24 | 43.98388 | 10.30067 | 36162 ft | 413 kts | 316° |
| 2026-04-16 22:25 | 44.02206 | 10.24153 | 36139 ft | 414 kts | 315° |
| 2026-04-16 22:25 | 44.06064 | 10.18163 | 36145 ft | 415 kts | 315° |
| 2026-04-16 22:26 | 44.09930 | 10.12149 | 36137 ft | 417 kts | 315° |
| 2026-04-16 22:26 | 44.13779 | 10.06149 | 36127 ft | 418 kts | 315° |
| 2026-04-16 22:27 | 44.17655 | 10.00092 | 36132 ft | 418 kts | 315° |
| 2026-04-16 22:27 | 44.21511 | 9.94053 | 36129 ft | 418 kts | 315° |
| 2026-04-16 22:28 | 44.25382 | 9.87978 | 36139 ft | 418 kts | 315° |
| 2026-04-16 22:28 | 44.29244 | 9.81906 | 36143 ft | 418 kts | 315° |
| 2026-04-16 22:29 | 44.33086 | 9.75852 | 36151 ft | 417 kts | 315° |
| 2026-04-16 22:29 | 44.36941 | 9.69762 | 36146 ft | 417 kts | 315° |
| 2026-04-16 22:30 | 44.40759 | 9.63720 | 36143 ft | 416 kts | 314° |
| 2026-04-16 22:30 | 44.44591 | 9.57640 | 36156 ft | 415 kts | 314° |
| 2026-04-16 22:31 | 44.48411 | 9.51569 | 36149 ft | 415 kts | 314° |
| 2026-04-16 22:31 | 44.52201 | 9.45532 | 36162 ft | 415 kts | 314° |
| 2026-04-16 22:32 | 44.56019 | 9.39437 | 36160 ft | 415 kts | 314° |
| 2026-04-16 22:32 | 44.59827 | 9.33345 | 36165 ft | 414 kts | 314° |
| 2026-04-16 22:33 | 44.63609 | 9.27283 | 36157 ft | 415 kts | 314° |
| 2026-04-16 22:33 | 44.67414 | 9.21168 | 36155 ft | 416 kts | 313° |
| 2026-04-16 22:34 | 44.71221 | 9.15038 | 36168 ft | 416 kts | 313° |
| 2026-04-16 22:34 | 44.75015 | 9.08915 | 36160 ft | 417 kts | 313° |
| 2026-04-16 22:35 | 44.78836 | 9.02736 | 36146 ft | 418 kts | 313° |
| 2026-04-16 22:35 | 44.82640 | 8.96572 | 36155 ft | 418 kts | 313° |
| 2026-04-16 22:36 | 44.86468 | 8.90352 | 36150 ft | 419 kts | 313° |
| 2026-04-16 22:36 | 44.90261 | 8.84177 | 36154 ft | 419 kts | 313° |
| 2026-04-16 22:37 | 44.94080 | 8.77946 | 36156 ft | 419 kts | 312° |
| 2026-04-16 22:37 | 44.97899 | 8.71703 | 36158 ft | 419 kts | 312° |
| 2026-04-16 22:38 | 45.01630 | 8.65588 | 36156 ft | 419 kts | 312° |
| 2026-04-16 22:38 | 45.05437 | 8.59334 | 36153 ft | 419 kts | 312° |
| 2026-04-16 22:39 | 45.09242 | 8.53071 | 36149 ft | 419 kts | 312° |
| 2026-04-16 22:39 | 45.13039 | 8.46807 | 36149 ft | 419 kts | 311° |
| 2026-04-16 22:40 | 45.16821 | 8.40553 | 36146 ft | 419 kts | 311° |
| 2026-04-16 22:40 | 45.20616 | 8.34265 | 36144 ft | 419 kts | 311° |
| 2026-04-16 22:41 | 45.24390 | 8.27996 | 36147 ft | 419 kts | 311° |
| 2026-04-16 22:41 | 45.28174 | 8.21697 | 36147 ft | 419 kts | 311° |
| 2026-04-16 22:42 | 45.31968 | 8.15368 | 36154 ft | 420 kts | 311° |
| 2026-04-16 22:42 | 45.35113 | 8.10110 | 36157 ft | 420 kts | 310° |
| 2026-04-16 22:43 | 45.39517 | 8.02731 | 36161 ft | 421 kts | 310° |
| 2026-04-16 22:43 | 45.42669 | 7.97438 | 36164 ft | 421 kts | 310° |
| 2026-04-16 22:44 | 45.46462 | 7.91055 | 36171 ft | 422 kts | 310° |
| 2026-04-16 22:44 | 45.50259 | 7.84649 | 36176 ft | 422 kts | 310° |
| 2026-04-16 22:45 | 45.54038 | 7.78261 | 36185 ft | 423 kts | 310° |
| 2026-04-16 22:45 | 45.57829 | 7.71836 | 36192 ft | 423 kts | 310° |
| 2026-04-16 22:46 | 45.61624 | 7.65391 | 36201 ft | 424 kts | 309° |
| 2026-04-16 22:46 | 45.65405 | 7.58954 | 36206 ft | 424 kts | 309° |
| 2026-04-16 22:47 | 45.69200 | 7.52478 | 36202 ft | 424 kts | 309° |
| 2026-04-16 22:47 | 45.72999 | 7.45979 | 36211 ft | 425 kts | 309° |
| 2026-04-16 22:48 | 45.76769 | 7.39517 | 36209 ft | 425 kts | 309° |
| 2026-04-16 22:48 | 45.80835 | 7.33260 | 36213 ft | 434 kts | 320° |
| 2026-04-16 22:49 | 45.85796 | 7.28204 | 36211 ft | 445 kts | 324° |
| 2026-04-16 22:49 | 45.90931 | 7.23112 | 36227 ft | 450 kts | 323° |
| 2026-04-16 22:50 | 45.96027 | 7.17923 | 36203 ft | 444 kts | 323° |
| 2026-04-16 22:50 | 46.00999 | 7.12833 | 36221 ft | 441 kts | 322° |
| 2026-04-16 22:51 | 46.06009 | 7.07695 | 36222 ft | 441 kts | 322° |
| 2026-04-16 22:51 | 46.11028 | 7.02537 | 36218 ft | 442 kts | 322° |
| 2026-04-16 22:52 | 46.16015 | 6.97400 | 36226 ft | 444 kts | 322° |
| 2026-04-16 22:52 | 46.21059 | 6.92191 | 36205 ft | 446 kts | 322° |
| 2026-04-16 22:53 | 46.26114 | 6.86961 | 36209 ft | 446 kts | 322° |
| 2026-04-16 22:53 | 46.31139 | 6.81749 | 36216 ft | 446 kts | 322° |
| 2026-04-16 22:54 | 46.36195 | 6.76492 | 36209 ft | 446 kts | 322° |
| 2026-04-16 22:54 | 46.41216 | 6.71261 | 36215 ft | 445 kts | 321° |
| 2026-04-16 22:55 | 46.46417 | 6.66364 | 36209 ft | 448 kts | 330° |
| 2026-04-16 22:55 | 46.52018 | 6.62446 | 36219 ft | 448 kts | 332° |
| 2026-04-16 22:56 | 46.57674 | 6.58561 | 36216 ft | 448 kts | 332° |
| 2026-04-16 22:56 | 46.63307 | 6.54623 | 36224 ft | 448 kts | 331° |
| 2026-04-16 22:57 | 46.68887 | 6.50676 | 36221 ft | 449 kts | 331° |
| 2026-04-16 22:57 | 46.74522 | 6.46675 | 36229 ft | 449 kts | 331° |
| 2026-04-16 22:58 | 46.80148 | 6.42671 | 36231 ft | 450 kts | 330° |
| 2026-04-16 22:58 | 46.85776 | 6.38657 | 36241 ft | 450 kts | 330° |
| 2026-04-16 22:59 | 46.91372 | 6.34657 | 36223 ft | 451 kts | 330° |
| 2026-04-16 22:59 | 46.96948 | 6.30666 | 36218 ft | 438 kts | 330° |
| 2026-04-16 23:00 | 47.02384 | 6.26763 | 36234 ft | 432 kts | 330° |
| 2026-04-16 23:00 | 47.07777 | 6.22881 | 36246 ft | 431 kts | 330° |
| 2026-04-16 23:01 | 47.13133 | 6.19024 | 36239 ft | 430 kts | 330° |
| 2026-04-16 23:01 | 47.18514 | 6.15142 | 36226 ft | 430 kts | 330° |
| 2026-04-16 23:02 | 47.23865 | 6.11270 | 36230 ft | 430 kts | 330° |
| 2026-04-16 23:02 | 47.29251 | 6.07365 | 36216 ft | 431 kts | 330° |
| 2026-04-16 23:03 | 47.34782 | 6.04030 | 36209 ft | 430 kts | 343° |
| 2026-04-16 23:03 | 47.40763 | 6.03193 | 36226 ft | 435 kts | 357° |
| 2026-04-16 23:04 | 47.43802 | 6.03289 | 35926 ft | 438 kts | 358° |
| 2026-04-16 23:04 | 47.46803 | 6.03422 | 35641 ft | 433 kts | 358° |
| 2026-04-16 23:04 | 47.49805 | 6.03547 | 35223 ft | 430 kts | 358° |
| 2026-04-16 23:04 | 47.52781 | 6.03649 | 34855 ft | 426 kts | 357° |
| 2026-04-16 23:05 | 47.55740 | 6.03731 | 34469 ft | 423 kts | 357° |
| 2026-04-16 23:05 | 47.58689 | 6.03801 | 34067 ft | 421 kts | 357° |
| 2026-04-16 23:05 | 47.61605 | 6.03865 | 33628 ft | 418 kts | 356° |
| 2026-04-16 23:05 | 47.64509 | 6.03928 | 33220 ft | 415 kts | 356° |
| 2026-04-16 23:06 | 47.67388 | 6.03991 | 32823 ft | 412 kts | 356° |
| 2026-04-16 23:06 | 47.70205 | 6.04054 | 32450 ft | 408 kts | 356° |
| 2026-04-16 23:06 | 47.73043 | 6.04118 | 32057 ft | 405 kts | 356° |
| 2026-04-16 23:06 | 47.75863 | 6.04188 | 31677 ft | 402 kts | 357° |
| 2026-04-16 23:07 | 47.78658 | 6.04272 | 31303 ft | 400 kts | 357° |
| 2026-04-16 23:07 | 47.81361 | 6.04358 | 30942 ft | 397 kts | 357° |
| 2026-04-16 23:07 | 47.84146 | 6.04449 | 30569 ft | 394 kts | 357° |
| 2026-04-16 23:07 | 47.86890 | 6.04537 | 30189 ft | 392 kts | 357° |
| 2026-04-16 23:08 | 47.89612 | 6.04623 | 29762 ft | 389 kts | 357° |
| 2026-04-16 23:08 | 47.92306 | 6.04708 | 29354 ft | 386 kts | 357° |
| 2026-04-16 23:08 | 47.94978 | 6.04792 | 28959 ft | 382 kts | 356° |
| 2026-04-16 23:08 | 47.97630 | 6.04876 | 28595 ft | 379 kts | 356° |
| 2026-04-16 23:09 | 48.00229 | 6.04957 | 28201 ft | 376 kts | 356° |
| 2026-04-16 23:09 | 48.02841 | 6.05038 | 27834 ft | 373 kts | 356° |
| 2026-04-16 23:09 | 48.05435 | 6.05118 | 27458 ft | 370 kts | 356° |
| 2026-04-16 23:09 | 48.07999 | 6.05198 | 27094 ft | 367 kts | 356° |
| 2026-04-16 23:10 | 48.10522 | 6.05277 | 26735 ft | 365 kts | 356° |
| 2026-04-16 23:10 | 48.13056 | 6.05356 | 26372 ft | 363 kts | 356° |
| 2026-04-16 23:10 | 48.15572 | 6.05434 | 26007 ft | 360 kts | 356° |
| 2026-04-16 23:10 | 48.18072 | 6.05512 | 25654 ft | 358 kts | 356° |
| 2026-04-16 23:11 | 48.20560 | 6.05590 | 25297 ft | 356 kts | 356° |
| 2026-04-16 23:11 | 48.23041 | 6.05667 | 24945 ft | 355 kts | 356° |
| 2026-04-16 23:11 | 48.25512 | 6.05745 | 24581 ft | 354 kts | 356° |
| 2026-04-16 23:11 | 48.27943 | 6.05822 | 24222 ft | 353 kts | 356° |
| 2026-04-16 23:12 | 48.30399 | 6.06113 | 23828 ft | 357 kts | 6° |
| 2026-04-16 23:12 | 48.32811 | 6.07167 | 23443 ft | 361 kts | 18° |
| 2026-04-16 23:12 | 48.35050 | 6.08916 | 23057 ft | 363 kts | 27° |
| 2026-04-16 23:12 | 48.37152 | 6.10931 | 22694 ft | 362 kts | 29° |
| 2026-04-16 23:13 | 48.39251 | 6.13021 | 22325 ft | 360 kts | 30° |
| 2026-04-16 23:13 | 48.41327 | 6.15096 | 21974 ft | 357 kts | 30° |
| 2026-04-16 23:13 | 48.43403 | 6.17156 | 21615 ft | 355 kts | 29° |
| 2026-04-16 23:13 | 48.45465 | 6.19187 | 21267 ft | 353 kts | 29° |
| 2026-04-16 23:14 | 48.47516 | 6.21197 | 20927 ft | 351 kts | 29° |
| 2026-04-16 23:14 | 48.49538 | 6.23173 | 20596 ft | 349 kts | 29° |
| 2026-04-16 23:14 | 48.51569 | 6.25156 | 20245 ft | 348 kts | 29° |
| 2026-04-16 23:14 | 48.53605 | 6.27143 | 19908 ft | 346 kts | 29° |
| 2026-04-16 23:15 | 48.57639 | 6.31088 | 19236 ft | 343 kts | 30° |
| 2026-04-16 23:15 | 48.59620 | 6.33028 | 18903 ft | 342 kts | 30° |
| 2026-04-16 23:15 | 48.61619 | 6.34986 | 18557 ft | 342 kts | 30° |
| 2026-04-16 23:16 | 48.63610 | 6.36939 | 18178 ft | 340 kts | 30° |
| 2026-04-16 23:16 | 48.65593 | 6.38886 | 17816 ft | 339 kts | 30° |
| 2026-04-16 23:16 | 48.67548 | 6.40874 | 17421 ft | 339 kts | 32° |
| 2026-04-16 23:16 | 48.69482 | 6.42914 | 17073 ft | 337 kts | 32° |
| 2026-04-16 23:17 | 48.71385 | 6.44904 | 16736 ft | 334 kts | 31° |
| 2026-04-16 23:17 | 48.73324 | 6.46817 | 16414 ft | 332 kts | 30° |
| 2026-04-16 23:17 | 48.75263 | 6.48693 | 16096 ft | 329 kts | 30° |
| 2026-04-16 23:17 | 48.77199 | 6.50565 | 15775 ft | 327 kts | 30° |
| 2026-04-16 23:18 | 48.79115 | 6.52423 | 15453 ft | 325 kts | 30° |
| 2026-04-16 23:18 | 48.80991 | 6.54251 | 15148 ft | 323 kts | 30° |
| 2026-04-16 23:18 | 48.82877 | 6.56095 | 14834 ft | 321 kts | 31° |
| 2026-04-16 23:18 | 48.84754 | 6.57935 | 14515 ft | 320 kts | 31° |
| 2026-04-16 23:19 | 48.86620 | 6.59767 | 14214 ft | 318 kts | 31° |
| 2026-04-16 23:19 | 48.88483 | 6.61599 | 13874 ft | 317 kts | 31° |
| 2026-04-16 23:19 | 48.90311 | 6.63398 | 13516 ft | 315 kts | 31° |
| 2026-04-16 23:19 | 48.92140 | 6.65200 | 13237 ft | 310 kts | 31° |
| 2026-04-16 23:20 | 48.93947 | 6.66981 | 12910 ft | 308 kts | 31° |
| 2026-04-16 23:20 | 48.95747 | 6.68756 | 12600 ft | 306 kts | 32° |
| 2026-04-16 23:20 | 48.97487 | 6.70530 | 12290 ft | 304 kts | 38° |
| 2026-04-16 23:20 | 48.98824 | 6.72992 | 12007 ft | 302 kts | 62° |
| 2026-04-16 23:21 | 48.99529 | 6.75994 | 11717 ft | 299 kts | 73° |
| 2026-04-16 23:21 | 49.00067 | 6.79052 | 11410 ft | 298 kts | 75° |
| 2026-04-16 23:21 | 49.00582 | 6.82115 | 11097 ft | 297 kts | 75° |
| 2026-04-16 23:21 | 49.01088 | 6.85118 | 10804 ft | 295 kts | 75° |
| 2026-04-16 23:22 | 49.01603 | 6.88142 | 10509 ft | 294 kts | 75° |
| 2026-04-16 23:22 | 49.02118 | 6.91131 | 10326 ft | 288 kts | 75° |
| 2026-04-16 23:22 | 49.02624 | 6.94053 | 10102 ft | 284 kts | 75° |
| 2026-04-16 23:22 | 49.03129 | 6.96956 | 9792 ft | 282 kts | 75° |
| 2026-04-16 23:23 | 49.03632 | 6.99839 | 9500 ft | 281 kts | 75° |
| 2026-04-16 23:23 | 49.04133 | 7.02706 | 9204 ft | 279 kts | 75° |
| 2026-04-16 23:23 | 49.04625 | 7.05525 | 8918 ft | 277 kts | 75° |
| 2026-04-16 23:23 | 49.05120 | 7.08368 | 8640 ft | 275 kts | 75° |
| 2026-04-16 23:24 | 49.05612 | 7.11191 | 8368 ft | 274 kts | 76° |
| 2026-04-16 23:24 | 49.06098 | 7.13988 | 8088 ft | 272 kts | 76° |
| 2026-04-16 23:24 | 49.06576 | 7.16741 | 7805 ft | 272 kts | 76° |
| 2026-04-16 23:24 | 49.07058 | 7.19521 | 7526 ft | 271 kts | 76° |
| 2026-04-16 23:25 | 49.07539 | 7.22297 | 7240 ft | 270 kts | 76° |
| 2026-04-16 23:25 | 49.08019 | 7.25076 | 6869 ft | 272 kts | 76° |
| 2026-04-16 23:25 | 49.08508 | 7.27902 | 6464 ft | 277 kts | 76° |
| 2026-04-16 23:25 | 49.08997 | 7.30740 | 6135 ft | 276 kts | 76° |
| 2026-04-16 23:26 | 49.09475 | 7.33521 | 5978 ft | 270 kts | 76° |
| 2026-04-16 23:26 | 49.09946 | 7.36257 | 5838 ft | 262 kts | 75° |
| 2026-04-16 23:26 | 49.10750 | 7.38690 | 5703 ft | 256 kts | 47° |
| 2026-04-16 23:26 | 49.12174 | 7.40197 | 5616 ft | 246 kts | 20° |
| 2026-04-16 23:27 | 49.13795 | 7.40723 | 5516 ft | 237 kts | 4° |
| 2026-04-16 23:27 | 49.15424 | 7.40848 | 5328 ft | 233 kts | 1° |
| 2026-04-16 23:27 | 49.17049 | 7.40933 | 5107 ft | 231 kts | 1° |
| 2026-04-16 23:27 | 49.18640 | 7.41026 | 4903 ft | 225 kts | 2° |
| 2026-04-16 23:28 | 49.20162 | 7.40986 | 4627 ft | 219 kts | 345° |
| 2026-04-16 23:28 | 49.21355 | 7.39726 | 4426 ft | 206 kts | 300° |
| 2026-04-16 23:28 | 49.21761 | 7.37686 | 4303 ft | 200 kts | 281° |
| 2026-04-16 23:28 | 49.21982 | 7.35576 | 4071 ft | 201 kts | 275° |
| 2026-04-16 23:29 | 49.22080 | 7.33496 | 3827 ft | 196 kts | 272° |
| 2026-04-16 23:29 | 49.22076 | 7.31418 | 3567 ft | 193 kts | 268° |
| 2026-04-16 23:29 | 49.22017 | 7.29375 | 3301 ft | 190 kts | 267° |
| 2026-04-16 23:29 | 49.21952 | 7.27368 | 3050 ft | 187 kts | 268° |
| 2026-04-16 23:30 | 49.21891 | 7.25396 | 2803 ft | 184 kts | 268° |
| 2026-04-16 23:30 | 49.21832 | 7.23477 | 2556 ft | 181 kts | 268° |
| 2026-04-16 23:30 | 49.21773 | 7.21579 | 2316 ft | 174 kts | 268° |
| 2026-04-16 23:30 | 49.21719 | 7.19786 | 2130 ft | 161 kts | 269° |
| 2026-04-16 23:31 | 49.21670 | 7.18164 | 1897 ft | 145 kts | 269° |
| 2026-04-16 23:31 | 49.21640 | 7.17150 | 1742 ft | 142 kts | 268° |
| 2026-04-16 23:31 | 49.21598 | 7.15663 | 1545 ft | 140 kts | 268° |
| 2026-04-16 23:31 | 49.21535 | 7.13660 | 1302 ft | 143 kts | 266° |
| 2026-04-16 23:32 | 49.21507 | 7.12645 | 1170 ft | 144 kts | 268° |
| 2026-04-16 23:32 | 49.21461 | 7.11143 | 1067 ft | 127 kts | 268° |
| 2026-04-16 23:32 | 49.21431 | 7.10126 | 1026 ft | 64 kts | 267° |
| 2026-04-16 23:32 | 49.21426 | 7.09806 | 1011 ft | 15 kts | 287° |
| 2026-04-16 23:33 | 49.21496 | 7.09795 | 1015 ft | 10 kts | 54° |
| 2026-04-16 23:33 | 49.21528 | 7.09886 | 1023 ft | 10 kts | 65° |
| 2026-04-16 23:33 | 49.21559 | 7.09985 | 1029 ft | 11 kts | 65° |
| 2026-04-16 23:33 | 49.21579 | 7.10094 | 1040 ft | 11 kts | 83° |
| 2026-04-16 23:34 | 49.21584 | 7.10213 | 1048 ft | 12 kts | 87° |
| 2026-04-16 23:34 | 49.21589 | 7.10368 | 1053 ft | 17 kts | 87° |
| 2026-04-16 23:34 | 49.21595 | 7.10572 | 1058 ft | 22 kts | 87° |
| 2026-04-16 23:34 | 49.21602 | 7.10809 | 1063 ft | 21 kts | 88° |
| 2026-04-16 23:35 | 49.21607 | 7.11008 | 1065 ft | 15 kts | 87° |
| 2026-04-16 23:35 | 49.21645 | 7.11112 | 1066 ft | 11 kts | 22° |
| 2026-04-16 23:35 | 49.21719 | 7.11151 | 1067 ft | 12 kts | 18° |
| 2026-04-16 23:35 | 49.21772 | 7.11199 | 1066 ft | 7 kts | 65° |
| 2026-04-16 23:36 | 49.21787 | 7.11284 | 1067 ft | 7 kts | 77° |
| 2026-04-16 23:36 | 49.21791 | 7.11296 | 1067 ft | 0 kts | 54° |
| 2026-04-16 23:36 | 49.21813 | 7.11304 | 1066 ft | 7 kts | 349° |
| 2026-04-16 23:36 | 49.21837 | 7.11294 | 1066 ft | 0 kts | 346° |